createdAt,value
2022-10-12T00:03:09.531Z,0
2022-10-12T00:06:34.687Z,0
2022-10-12T00:09:59.839Z,0
2022-10-12T00:13:25.023Z,0
2022-10-12T00:16:50.149Z,0
2022-10-12T00:20:15.624Z,0
2022-10-12T00:23:40.785Z,0
2022-10-12T00:27:05.958Z,0
2022-10-12T00:30:31.146Z,0
2022-10-12T00:33:56.277Z,0
2022-10-12T00:37:21.450Z,0
2022-10-12T00:40:46.614Z,0
2022-10-12T00:44:11.767Z,0
2022-10-12T00:47:37.328Z,0
2022-10-12T00:51:02.077Z,0
2022-10-12T00:54:27.225Z,0
2022-10-12T00:57:52.393Z,0
2022-10-12T01:01:17.595Z,0
2022-10-12T01:04:42.766Z,0
2022-10-12T01:08:07.913Z,0
2022-10-12T01:11:33.068Z,0
2022-10-12T01:14:58.224Z,0
2022-10-12T01:18:23.383Z,0
2022-10-12T01:21:48.563Z,0
2022-10-12T01:25:13.699Z,0
2022-10-12T01:28:38.921Z,0
2022-10-12T01:32:03.992Z,0
2022-10-12T01:35:29.163Z,0
2022-10-12T01:38:54.325Z,0
2022-10-12T01:42:19.458Z,0
2022-10-12T01:45:44.612Z,0
2022-10-12T01:49:09.754Z,0
2022-10-12T01:52:34.902Z,0
2022-10-12T01:56:00.115Z,0
2022-10-12T01:59:25.936Z,0
2022-10-12T02:02:51.102Z,0
2022-10-12T02:06:16.264Z,0
2022-10-12T02:09:41.418Z,0
2022-10-12T02:13:06.588Z,0
2022-10-12T02:16:31.705Z,0
2022-10-12T02:19:56.869Z,0
2022-10-12T02:23:22.021Z,0
2022-10-12T02:26:47.175Z,0
2022-10-12T02:30:12.347Z,0
2022-10-12T02:33:37.479Z,0
2022-10-12T02:37:02.644Z,0
2022-10-12T02:40:27.790Z,0
2022-10-12T02:43:52.937Z,0
2022-10-12T02:47:18.121Z,0
2022-10-12T02:50:43.258Z,0
2022-10-12T02:54:08.420Z,0
2022-10-12T02:57:33.569Z,0
2022-10-12T03:00:58.766Z,0
2022-10-12T03:04:23.935Z,0
2022-10-12T03:07:49.065Z,0
2022-10-12T03:11:14.210Z,0
2022-10-12T03:14:39.365Z,0
2022-10-12T03:18:04.570Z,0
2022-10-12T03:21:29.744Z,0
2022-10-12T03:24:54.872Z,0
2022-10-12T03:28:20.081Z,0
2022-10-12T03:31:45.184Z,0
2022-10-12T03:35:10.322Z,0
2022-10-12T03:38:35.516Z,0
2022-10-12T03:42:00.648Z,0
2022-10-12T03:45:25.802Z,0
2022-10-12T03:48:50.983Z,0
2022-10-12T03:52:16.159Z,0
2022-10-12T03:55:41.371Z,0
2022-10-12T03:59:06.532Z,0
2022-10-12T04:02:31.750Z,0
2022-10-12T04:05:56.963Z,0
2022-10-12T04:09:22.165Z,0
2022-10-12T04:12:47.356Z,0
2022-10-12T04:16:12.478Z,0
2022-10-12T04:19:37.677Z,0
2022-10-12T04:23:02.842Z,0
2022-10-12T04:26:28.006Z,0
2022-10-12T04:29:53.147Z,0
2022-10-12T04:33:18.283Z,0
2022-10-12T04:36:43.443Z,0
2022-10-12T04:40:08.598Z,0
2022-10-12T04:43:33.737Z,0
2022-10-12T04:46:58.927Z,0
2022-10-12T04:50:27.588Z,0
2022-10-12T04:53:49.312Z,0
2022-10-12T04:57:14.549Z,0
2022-10-12T05:00:39.689Z,0
2022-10-12T05:04:04.891Z,0
2022-10-12T05:07:29.996Z,0
2022-10-12T05:10:55.203Z,0
2022-10-12T05:14:20.377Z,0
2022-10-12T05:17:45.554Z,0
2022-10-12T05:21:10.785Z,0
2022-10-12T05:24:35.913Z,0
2022-10-12T05:28:01.055Z,0
2022-10-12T05:31:26.217Z,0
2022-10-12T05:34:51.385Z,0
2022-10-12T05:38:16.563Z,0
2022-10-12T05:41:41.690Z,0
2022-10-12T05:45:06.903Z,0
2022-10-12T05:48:32.073Z,0
2022-10-12T05:51:57.315Z,0
2022-10-12T05:55:22.553Z,0
2022-10-12T05:58:47.731Z,0
2022-10-12T06:02:12.994Z,0
2022-10-12T06:05:38.139Z,0
2022-10-12T06:09:03.362Z,0
2022-10-12T06:12:28.588Z,0
2022-10-12T06:15:53.752Z,0
2022-10-12T06:19:18.975Z,0
2022-10-12T06:22:44.165Z,0
2022-10-12T06:26:09.366Z,0
2022-10-12T06:29:34.581Z,0
2022-10-12T06:32:59.718Z,0
2022-10-12T06:36:24.945Z,0
2022-10-12T06:39:50.159Z,6
2022-10-12T06:43:15.358Z,6
2022-10-12T06:46:40.632Z,6
2022-10-12T06:50:05.837Z,6
2022-10-12T06:53:31.034Z,6
2022-10-12T06:56:58.681Z,6
2022-10-12T07:00:21.428Z,6
2022-10-12T07:03:46.641Z,11
2022-10-12T07:07:11.830Z,11
2022-10-12T07:10:37.017Z,11
2022-10-12T07:14:02.210Z,6
2022-10-12T07:17:27.382Z,11
2022-10-12T07:20:52.587Z,11
2022-10-12T07:24:17.766Z,11
2022-10-12T07:27:42.989Z,11
2022-10-12T07:31:08.217Z,11
2022-10-12T07:34:33.430Z,11
2022-10-12T07:37:58.647Z,11
2022-10-12T07:41:23.836Z,11
2022-10-12T07:44:49.037Z,11
2022-10-12T07:48:14.267Z,11
2022-10-12T07:51:39.447Z,11
2022-10-12T07:55:04.688Z,11
2022-10-12T07:58:29.881Z,11
2022-10-12T08:01:55.169Z,17
2022-10-12T08:05:20.290Z,17
2022-10-12T08:08:45.512Z,17
2022-10-12T08:12:10.746Z,17
2022-10-12T08:15:35.931Z,17
2022-10-12T08:19:01.132Z,23
2022-10-12T08:22:26.335Z,17
2022-10-12T08:25:52.232Z,17
2022-10-12T08:29:17.523Z,17
2022-10-12T08:32:42.622Z,17
2022-10-12T08:36:07.863Z,23
2022-10-12T08:39:33.056Z,23
2022-10-12T08:42:58.260Z,23
2022-10-12T08:46:23.475Z,23
2022-10-12T08:49:49.986Z,23
2022-10-12T08:53:13.820Z,23
2022-10-12T08:56:39.035Z,23
2022-10-12T09:00:04.205Z,23
2022-10-12T09:03:29.506Z,23
2022-10-12T09:06:54.631Z,28
2022-10-12T09:10:19.811Z,28
2022-10-12T09:13:45.038Z,28
2022-10-12T09:17:10.209Z,28
2022-10-12T09:20:35.433Z,28
2022-10-12T09:24:00.573Z,28
2022-10-12T09:27:25.791Z,23
2022-10-12T09:30:50.988Z,17
2022-10-12T09:34:19.139Z,11
2022-10-12T09:37:41.387Z,11
2022-10-12T09:41:06.838Z,6
2022-10-12T09:44:32.042Z,6
2022-10-12T09:47:57.231Z,11
2022-10-12T09:51:22.443Z,11
2022-10-12T09:54:47.675Z,11
2022-10-12T09:58:12.869Z,11
2022-10-12T10:01:38.143Z,11
2022-10-12T10:05:03.310Z,11
2022-10-12T10:08:28.522Z,11
2022-10-12T10:11:53.745Z,11
2022-10-12T10:15:18.979Z,11
2022-10-12T10:18:44.196Z,17
2022-10-12T10:22:09.396Z,17
2022-10-12T10:25:34.595Z,17
2022-10-12T10:28:59.970Z,11
2022-10-12T10:32:25.064Z,28
2022-10-12T10:35:50.335Z,23
2022-10-12T10:39:15.540Z,11
2022-10-12T10:42:40.722Z,28
2022-10-12T10:46:05.972Z,23
2022-10-12T10:49:31.118Z,11
2022-10-12T10:52:56.376Z,28
2022-10-12T10:56:21.589Z,34
2022-10-12T10:59:46.813Z,34
2022-10-12T11:03:12.112Z,34
2022-10-12T11:06:37.217Z,11
2022-10-12T11:10:02.458Z,17
2022-10-12T11:13:27.671Z,11
2022-10-12T11:16:52.912Z,23
2022-10-12T11:20:19.858Z,39
2022-10-12T11:23:43.375Z,28
2022-10-12T11:27:08.598Z,45
2022-10-12T11:30:33.803Z,45
2022-10-12T11:33:58.975Z,23
2022-10-12T11:37:24.236Z,39
2022-10-12T11:44:14.603Z,17
2022-10-12T11:47:39.769Z,17
2022-10-12T11:51:04.956Z,39
2022-10-12T11:54:30.167Z,39
2022-10-12T11:57:55.332Z,39
2022-10-12T12:01:20.504Z,39
2022-10-12T12:04:45.687Z,39
2022-10-12T12:08:10.855Z,11
2022-10-12T12:11:36.043Z,11
2022-10-12T12:15:01.222Z,11
2022-10-12T12:18:26.409Z,11
2022-10-12T12:21:51.578Z,11
2022-10-12T12:25:16.786Z,11
2022-10-12T12:28:42.053Z,28
2022-10-12T12:32:07.134Z,23
2022-10-12T12:35:32.330Z,11
2022-10-12T12:38:57.502Z,6
2022-10-12T12:42:22.752Z,11
2022-10-12T12:45:48.054Z,39
2022-10-12T12:49:13.126Z,39
2022-10-12T12:52:38.342Z,34
2022-10-12T12:56:03.546Z,17
2022-10-12T12:59:28.747Z,28
2022-10-12T13:02:53.940Z,34
2022-10-12T13:06:19.113Z,34
2022-10-12T13:09:44.360Z,17
2022-10-12T13:13:09.534Z,28
2022-10-12T13:17:23.758Z,23
2022-10-12T13:20:48.441Z,23
2022-10-12T13:24:13.582Z,17
2022-10-12T13:27:38.858Z,6
2022-10-12T13:31:04.098Z,6
2022-10-12T13:34:29.300Z,17
2022-10-12T13:37:54.481Z,17
2022-10-12T13:41:19.737Z,17
2022-10-12T13:44:44.937Z,23
2022-10-12T13:48:10.340Z,17
2022-10-12T13:51:37.443Z,17
2022-10-12T13:55:02.979Z,17
2022-10-12T13:58:28.099Z,17
2022-10-12T14:01:53.343Z,0
2022-10-12T14:05:18.530Z,17
2022-10-12T14:08:43.693Z,17
2022-10-12T14:12:08.961Z,17
2022-10-12T14:15:34.259Z,17
2022-10-12T14:18:59.464Z,17
2022-10-12T14:22:24.657Z,11
2022-10-12T14:25:49.841Z,6
2022-10-12T14:29:15.056Z,0
2022-10-12T15:05:17.653Z,0
2022-10-12T15:08:42.809Z,6
2022-10-12T15:12:07.965Z,6
2022-10-12T15:15:33.155Z,6
2022-10-12T15:18:58.341Z,6
2022-10-12T15:22:23.569Z,6
2022-10-12T15:25:48.703Z,6
2022-10-12T15:29:13.895Z,0
2022-10-12T15:32:39.104Z,0
2022-10-12T15:36:04.261Z,0
2022-10-12T15:39:29.547Z,0
2022-10-12T15:42:54.636Z,0
2022-10-12T15:46:19.791Z,0
2022-10-12T15:49:45.084Z,0
2022-10-12T15:53:10.294Z,0
2022-10-12T15:56:35.551Z,0
2022-10-12T16:00:00.767Z,0
2022-10-12T16:03:26.514Z,0
2022-10-12T16:06:51.133Z,0
2022-10-12T16:10:16.384Z,0
2022-10-12T16:13:46.982Z,0
2022-10-12T16:17:06.819Z,0
2022-10-12T16:20:32.017Z,0
2022-10-12T16:23:57.187Z,0
2022-10-12T16:27:22.347Z,0
2022-10-12T16:30:47.569Z,0
2022-10-12T16:34:12.701Z,0
2022-10-12T16:37:37.865Z,0
2022-10-12T16:41:03.034Z,0
2022-10-12T16:44:28.195Z,0
2022-10-12T16:47:53.410Z,0
2022-10-12T16:51:18.510Z,0
2022-10-12T16:54:43.720Z,0
2022-10-12T16:58:08.876Z,0
2022-10-12T17:01:34.048Z,0
2022-10-12T17:04:59.250Z,0
2022-10-12T17:08:24.398Z,0
2022-10-12T17:11:49.568Z,0
2022-10-12T17:15:14.790Z,0
2022-10-12T17:18:39.988Z,0
2022-10-12T17:22:05.203Z,0
2022-10-12T17:25:30.382Z,0
2022-10-12T17:28:55.732Z,0
2022-10-12T17:32:20.801Z,0
2022-10-12T17:35:46.064Z,0
2022-10-12T17:39:11.318Z,0
2022-10-12T17:42:36.526Z,0
2022-10-12T17:46:01.753Z,0
2022-10-12T17:49:26.940Z,0
2022-10-12T17:52:52.178Z,0
2022-10-12T17:56:17.439Z,0
2022-10-12T17:59:42.625Z,0
2022-10-12T18:03:07.868Z,0
2022-10-12T18:06:33.117Z,0
2022-10-12T18:13:23.641Z,0
2022-10-12T18:16:48.950Z,0
2022-10-12T18:20:14.243Z,0
2022-10-12T18:23:39.454Z,0
2022-10-12T18:27:04.649Z,0
2022-10-12T18:30:29.925Z,0
2022-10-12T18:33:55.112Z,0
2022-10-12T18:37:20.332Z,0
2022-10-12T18:40:45.572Z,0
2022-10-12T18:44:10.794Z,0
2022-10-12T18:47:36.052Z,0
2022-10-12T18:51:01.249Z,0
2022-10-12T18:54:26.447Z,0
2022-10-12T18:57:51.680Z,0
2022-10-12T19:01:16.931Z,0
2022-10-12T19:04:42.172Z,0
2022-10-12T19:08:07.353Z,0
2022-10-12T19:11:32.605Z,0
2022-10-12T19:14:57.842Z,0
2022-10-12T19:18:23.078Z,0
2022-10-12T19:21:48.334Z,0
2022-10-12T19:25:13.537Z,0
2022-10-12T19:28:38.848Z,0
2022-10-12T19:32:04.039Z,0
2022-10-12T19:35:29.232Z,0
2022-10-12T19:38:54.472Z,0
2022-10-12T19:42:19.863Z,0
2022-10-12T19:45:44.894Z,0
2022-10-12T19:49:10.208Z,0
2022-10-12T19:52:35.353Z,0
2022-10-12T19:56:00.610Z,0
2022-10-12T19:59:25.823Z,0
2022-10-12T20:02:50.997Z,0
2022-10-12T20:06:16.195Z,0
2022-10-12T20:09:41.429Z,0
2022-10-12T20:13:06.660Z,0
2022-10-12T20:16:34.955Z,0
2022-10-12T20:19:57.103Z,0
2022-10-12T20:23:22.298Z,0
2022-10-12T20:26:47.522Z,0
2022-10-12T20:30:12.741Z,0
2022-10-12T20:33:37.951Z,0
2022-10-12T20:37:03.148Z,0
2022-10-12T20:40:28.374Z,0
2022-10-12T20:43:53.607Z,0
2022-10-12T20:47:18.820Z,0
2022-10-12T20:50:44.049Z,0
2022-10-12T20:54:09.214Z,0
2022-10-12T20:57:34.394Z,0
2022-10-12T21:00:59.654Z,0
2022-10-12T21:04:24.833Z,0
2022-10-12T21:07:50.024Z,0
2022-10-12T21:11:15.213Z,0
2022-10-12T21:14:40.425Z,0
2022-10-12T21:18:05.623Z,0
2022-10-12T21:21:30.855Z,0
2022-10-12T21:24:56.036Z,0
2022-10-12T21:28:21.262Z,0
2022-10-12T21:31:46.444Z,0
2022-10-12T21:35:11.674Z,0
2022-10-12T21:38:36.950Z,0
2022-10-12T21:42:02.071Z,0
2022-10-12T21:45:27.255Z,0
2022-10-12T21:48:52.475Z,0
2022-10-12T21:52:18.141Z,0
2022-10-12T21:55:42.901Z,0
2022-10-12T21:59:08.079Z,0
2022-10-12T22:02:33.258Z,0
2022-10-12T22:05:58.458Z,0
2022-10-12T22:09:23.662Z,0
2022-10-12T22:12:48.928Z,0
2022-10-12T22:16:14.087Z,0
2022-10-12T22:19:39.290Z,0
2022-10-12T22:23:04.502Z,0
2022-10-12T22:26:29.760Z,0
2022-10-12T22:29:54.929Z,0
2022-10-12T22:33:20.047Z,0
2022-10-12T22:36:45.260Z,0
2022-10-12T22:40:10.464Z,0
2022-10-12T22:43:35.650Z,0
2022-10-12T22:47:00.933Z,0
2022-10-12T22:50:25.957Z,0
2022-10-12T22:53:51.189Z,0
2022-10-12T22:57:16.369Z,0
2022-10-12T23:00:41.543Z,0
2022-10-12T23:04:06.735Z,0
2022-10-12T23:07:31.824Z,0
2022-10-12T23:10:56.966Z,0
2022-10-12T23:14:22.162Z,0
2022-10-12T23:17:47.364Z,0
2022-10-12T23:21:12.573Z,0
2022-10-12T23:24:37.745Z,0
2022-10-12T23:28:02.921Z,0
2022-10-12T23:31:28.114Z,0
2022-10-12T23:34:53.270Z,0
2022-10-12T23:38:18.480Z,0
2022-10-12T23:41:43.643Z,0
2022-10-12T23:45:08.812Z,0
2022-10-12T23:48:33.969Z,0
2022-10-12T23:51:59.132Z,0
2022-10-12T23:55:24.323Z,0
2022-10-12T23:58:49.485Z,0
